Vandenberg Air Force Base
KVBG : now visible

Airfield :











YOU CAN JOIN US ON...

 
LOGIN :

Register | Disclaimer

   EN    FR    IT 

 









Legend :    VFR   Marginal VFR   IFR   Intensive IFR   Very Intensive IFR
Visi :
Ceiling :
>= 8 km
>= 3000ft
5 to 8 km
1000 to 3000 ft
1500m to 5 km
500 to 1000 ft
800 to 1500m
200 to 500 ft
< 800m
< 200 ft
Symbols :   Thunderstorms  Fog  Heavy snow  Heavy precipitations  Wind > 20 kt






- Airport Elevation : 369 ft


KVBG - Vandenberg Air Force Base

CURRENT METAR :
  • 231058Z AUTO 34009KT 8SM CLR 12/12 A2995 RMK AO2 SLP145 T01190116

EXPIRED METARs :
  • 231043Z AUTO 34009KT 9SM SCT005 12/12 A2996 RMK AO2 SLP148
  • 230958Z AUTO 34011KT 7SM OVC005 13/12 A2998 RMK AO2 SLP154 T01260123
  • 230858Z AUTO 33011KT 9SM OVC006 13/13 A2997 RMK AO2 SLP151 T01280125 57009

TAF AMD TAF KVBG
Valid from the 22 at 22:00 until the 24 at 04:00 UTC


222248Z 2222/2404 26009KT 9999 SCT004 OVC006 QNH2997INS
BECMG 2222/2223 26009KT 8000 BR OVC004 QNH2998INS
BECMG 2301/2302 VRB06KT 3200 BR OVC002 QNH3000INS
BECMG 2303/2304 VRB06KT 0800 FG VV001 QNH3000INS
BECMG 2311/2312 VRB06KT 4800 BR OVC005 QNH3003INS
BECMG 2313/2314 27006KT 9999 NSW FEW006 BKN250 QNH3006INS
BECMG 2318/2319 30010G15KT 9999 BKN250 QNH3004INS
BECMG 2322/2323 32015G22KT 9999 BKN250 510006 QNH3002INS
BECMG 2400/2401 33012KT 9999 SCT004 BKN250 QNH3000INS
BECMG 2402/2403 34006KT 8000 BR OVC004 QNH3001INS TX18/2321Z TN11/2313Z LAST NO AMDS AFT 2300 NEXT 2514
KZLA FIR / North America



MET'MAP, your aeronautical weather chart ! - Copyright ORBIFLY December 2007 - Disclaimer

ORBIFLY MET'MAP TEAM :

Programming & Development : Alexandra Zaïnal
Concept & original design : Baudouin d'Aumeries
Assistance for programming : Marc-Olivier Méhu
Technical & hardware support : Manuel Goepfert

Contact : metmap@orbifly.com




SOURCES & CREDITS :

   NOAA       Earth
Advisory